Thunder Bay Airport
CYQT : now visible

Airfield :











YOU CAN JOIN US ON...

 
LOGIN :

Register | Disclaimer

   EN    FR    IT 

 









Legend :    VFR   Marginal VFR   IFR   Intensive IFR   Very Intensive IFR
Visi :
Ceiling :
>= 8 km
>= 3000ft
5 to 8 km
1000 to 3000 ft
1500m to 5 km
500 to 1000 ft
800 to 1500m
200 to 500 ft
< 800m
< 200 ft
Symbols :   Thunderstorms  Fog  Heavy snow  Heavy precipitations  Wind > 20 kt






- Airport Elevation : 653 ft
- IATA code : YQT


CYQT - Thunder Bay

CURRENT METAR :
  • 021600Z 31010G16KT 20SM FEW045 20/08 A2997 RMK CU1 SLP152 DENSITY ALT 1400FT

EXPIRED METARs :
  • 021500Z 29008G17KT 20SM FEW040 18/08 A2996 RMK CF1 SLP148 DENSITY ALT 1200FT
  • 020300Z 27007KT 15SM FEW080 18/04 A2982 RMK AC2 SLP102 DENSITY ALT 1300FT
  • 021400Z 28013KT 250V320 20SM FEW036 FEW280 17/07 A2995 RMK CF1CI1 CF TR CI TR SLP146 DENSITY ALT 1100FT

TAF TAF CYQT
Valid from the 02 at 14:00 until the 03 at 02:00 UTC


021340Z 0214/0302 27008KT P6SM FEW140
BECMG 0216/0218 29012KT
FM030000 29008KT P6SM SCT100 RMK NXT FCST BY 022000Z
CZWG FIR / North America



MET'MAP, your aeronautical weather chart ! - Copyright ORBIFLY December 2007 - Disclaimer

ORBIFLY MET'MAP TEAM :

Programming & Development : Alexandra Zaïnal
Original concept : Baudouin d'Aumeries
Technical & hardware support : Manuel Goepfert
Assistance : Marc-Olivier Méhu




SOURCES & CREDITS :

   NOAA       Earth
Advisory